Terminal Aerodrome Forecast
Issued by NWS

Home | Current Version | Previous Version | Text Only | Print | Product List | Glossary Off
Versions: 1 2 3 4 5 6 7 8 9 10 11 12 13 14 15

000
FTUS43 KMPX 180500
TAFAXN
TAF
KAXN 180527Z 1806/1906 VRB03KT P6SM SCT080
     FM180700 18005KT P6SM BKN060
     FM181600 13017G24KT P6SM FEW040 BKN100
     FM182300 13020G28KT P6SM SCT100 BKN200=

USA.gov is the U.S. government's official web portal to all federal, state and local government web resources and services.